createdAt,value
2019-04-03T00:00:15.256Z,4.30
2019-04-03T00:02:43.827Z,4.30
2019-04-03T00:05:12.546Z,4.30
2019-04-03T00:07:41.166Z,4.30
2019-04-03T00:10:10.521Z,4.30
2019-04-03T00:12:41.005Z,4.30
2019-04-03T00:15:13.228Z,4.20
2019-04-03T00:17:40.679Z,4.20
2019-04-03T00:20:09.538Z,4.20
2019-04-03T00:22:38.670Z,4.20
2019-04-03T00:25:08.858Z,4.20
2019-04-03T00:27:37.454Z,4.20
2019-04-03T00:30:07.645Z,4.20
2019-04-03T00:32:36.847Z,4.20
2019-04-03T00:35:09.150Z,4.20
2019-04-03T00:37:38.253Z,4.20
2019-04-03T00:40:07.955Z,4.10
2019-04-03T00:42:36.649Z,4.20
2019-04-03T00:45:07.068Z,4.10
2019-04-03T00:47:35.717Z,4.10
2019-04-03T00:50:05.963Z,4.10
2019-04-03T00:52:34.842Z,4.10
2019-04-03T00:55:04.003Z,4.10
2019-04-03T00:57:33.219Z,4.10
2019-04-03T01:00:01.946Z,4.10
2019-04-03T01:02:30.805Z,4.00
2019-04-03T01:04:59.417Z,4.00
2019-04-03T01:07:29.220Z,4.00
2019-04-03T01:09:59.569Z,4.00
2019-04-03T01:12:30.486Z,4.00
2019-04-03T01:15:01.043Z,4.00
2019-04-03T01:17:29.314Z,3.90
2019-04-03T01:19:58.085Z,3.90
2019-04-03T01:22:26.884Z,4.00
2019-04-03T01:24:55.506Z,4.00
2019-04-03T01:27:24.164Z,3.90
2019-04-03T01:29:52.847Z,3.90
2019-04-03T01:32:21.583Z,3.90
2019-04-03T01:34:50.174Z,3.90
2019-04-03T01:37:19.420Z,3.90
2019-04-03T01:39:49.006Z,3.90
2019-04-03T01:42:21.484Z,3.80
2019-04-03T01:44:48.921Z,3.90
2019-04-03T01:47:17.499Z,3.90
2019-04-03T01:49:46.175Z,3.80
2019-04-03T01:52:14.749Z,3.80
2019-04-03T01:54:43.597Z,3.80
2019-04-03T01:57:12.173Z,3.80
2019-04-03T01:59:40.802Z,3.80
2019-04-03T02:02:09.401Z,3.70
2019-04-03T02:04:38.113Z,3.70
2019-04-03T02:07:06.827Z,3.70
2019-04-03T02:09:35.533Z,3.70
2019-04-03T02:12:04.651Z,3.70
2019-04-03T02:14:33.246Z,3.60
2019-04-03T02:17:01.906Z,3.60
2019-04-03T02:19:30.468Z,3.60
2019-04-03T02:21:59.163Z,3.60
2019-04-03T02:24:27.857Z,3.50
2019-04-03T02:26:56.426Z,3.50
2019-04-03T02:29:25.133Z,3.50
2019-04-03T02:31:53.977Z,3.50
2019-04-03T02:34:22.707Z,3.50
2019-04-03T02:36:51.316Z,3.40
2019-04-03T02:39:19.954Z,3.40
2019-04-03T02:41:48.899Z,3.40
2019-04-03T02:44:19.137Z,3.40
2019-04-03T02:46:48.015Z,3.30
2019-04-03T02:49:16.563Z,3.40
2019-04-03T02:51:46.775Z,3.30
2019-04-03T02:54:30.033Z,3.30
2019-04-03T02:56:59.381Z,3.30
2019-04-03T02:59:28.107Z,3.30
2019-04-03T03:01:56.770Z,3.30
2019-04-03T03:04:26.596Z,3.30
2019-04-03T03:06:55.239Z,3.20
2019-04-03T03:09:23.888Z,3.20
2019-04-03T03:11:56.116Z,3.20
2019-04-03T03:14:24.009Z,3.10
2019-04-03T03:16:53.300Z,3.10
2019-04-03T03:19:24.276Z,3.10
2019-04-03T03:21:56.271Z,3.10
2019-04-03T03:24:28.426Z,3.10
2019-04-03T03:26:56.086Z,3.10
2019-04-03T03:29:27.417Z,3.00
2019-04-03T03:32:07.921Z,3.10
2019-04-03T03:34:49.551Z,3.00
2019-04-03T03:37:02.150Z,3.00
2019-04-03T03:39:29.470Z,3.00
2019-04-03T03:41:59.114Z,3.00
2019-04-03T03:44:28.832Z,3.00
2019-04-03T03:47:01.145Z,3.00
2019-04-03T03:49:30.113Z,3.00
2019-04-03T03:52:03.031Z,3.00
2019-04-03T03:54:31.000Z,3.00
2019-04-03T03:57:03.959Z,3.00
2019-04-03T03:59:31.695Z,3.00
2019-04-03T04:02:03.402Z,2.90
2019-04-03T04:04:31.056Z,2.90
2019-04-03T04:07:02.540Z,2.90
2019-04-03T04:09:30.951Z,2.90
2019-04-03T04:11:59.973Z,2.90
2019-04-03T04:14:29.501Z,2.90
2019-04-03T04:16:58.953Z,2.90
2019-04-03T04:19:30.527Z,2.90
2019-04-03T04:21:59.192Z,2.90
2019-04-03T04:24:28.721Z,3.00
2019-04-03T04:26:57.513Z,3.00
2019-04-03T04:29:26.351Z,3.00
2019-04-03T04:31:54.908Z,3.00
2019-04-03T04:34:25.469Z,3.10
2019-04-03T04:36:55.399Z,3.10
2019-04-03T04:39:24.437Z,3.10
2019-04-03T04:41:53.099Z,3.10
2019-04-03T04:44:21.687Z,3.20
2019-04-03T04:46:50.416Z,3.20
2019-04-03T04:49:19.273Z,3.30
2019-04-03T04:51:48.240Z,3.30
2019-04-03T04:54:16.946Z,3.40
2019-04-03T04:56:45.541Z,3.40
2019-04-03T04:59:14.332Z,3.50
2019-04-03T05:01:43.158Z,3.60
2019-04-03T05:04:14.832Z,3.60
2019-04-03T05:06:42.111Z,3.70
2019-04-03T05:09:11.093Z,3.70
2019-04-03T05:11:39.726Z,3.70
2019-04-03T05:14:09.921Z,3.80
2019-04-03T05:16:39.085Z,3.90
2019-04-03T05:19:10.439Z,3.90
2019-04-03T05:21:38.109Z,4.00
2019-04-03T05:24:12.828Z,4.10
2019-04-03T05:26:37.426Z,4.10
2019-04-03T05:29:06.378Z,4.20
2019-04-03T05:31:35.156Z,4.30
2019-04-03T05:34:03.936Z,4.30
2019-04-03T05:36:32.864Z,4.40
2019-04-03T05:39:03.146Z,4.50
2019-04-03T05:41:32.750Z,4.50
2019-04-03T05:44:02.366Z,4.60
2019-04-03T05:46:31.779Z,4.60
2019-04-03T05:49:03.710Z,4.70
2019-04-03T05:51:32.705Z,4.80
2019-04-03T05:54:01.385Z,4.90
2019-04-03T05:56:30.572Z,5.00
2019-04-03T05:59:02.232Z,5.10
2019-04-03T06:01:29.816Z,5.10
2019-04-03T06:04:00.449Z,5.10
2019-04-03T06:06:29.018Z,5.30
2019-04-03T06:08:57.706Z,5.30
2019-04-03T06:11:26.458Z,5.40
2019-04-03T06:13:55.123Z,5.50
2019-04-03T06:16:24.794Z,5.60
2019-04-03T06:18:53.589Z,5.70
2019-04-03T06:21:22.263Z,5.80
2019-04-03T06:23:52.658Z,6.00
2019-04-03T06:26:21.445Z,6.10
2019-04-03T06:28:50.699Z,6.20
2019-04-03T06:31:19.554Z,6.40
2019-04-03T06:33:50.990Z,6.40
2019-04-03T06:36:18.854Z,6.50
2019-04-03T06:38:48.066Z,6.60
2019-04-03T06:41:16.822Z,6.70
2019-04-03T06:43:47.222Z,6.80
2019-04-03T06:46:16.026Z,6.80
2019-04-03T06:48:45.016Z,6.90
2019-04-03T06:51:15.692Z,7.10
2019-04-03T06:53:43.917Z,7.20
2019-04-03T06:56:12.671Z,7.30
2019-04-03T06:58:43.827Z,7.40
2019-04-03T07:01:11.812Z,7.50
2019-04-03T07:03:40.803Z,7.50
2019-04-03T07:06:09.509Z,7.60
2019-04-03T07:08:40.310Z,7.70
2019-04-03T07:11:08.571Z,7.80
2019-04-03T07:13:37.448Z,7.80
2019-04-03T07:16:06.165Z,7.80
2019-04-03T07:18:37.002Z,7.90
2019-04-03T07:21:05.380Z,7.90
2019-04-03T07:23:34.035Z,8.00
2019-04-03T07:26:04.378Z,8.00
2019-04-03T07:28:33.096Z,8.10
2019-04-03T07:31:04.249Z,8.20
2019-04-03T07:33:32.815Z,8.30
2019-04-03T07:36:01.651Z,8.30
2019-04-03T07:38:30.194Z,8.40
2019-04-03T07:40:58.859Z,8.50
2019-04-03T07:43:27.884Z,8.60
2019-04-03T07:45:57.004Z,8.60
2019-04-03T07:48:25.682Z,8.70
2019-04-03T07:50:55.219Z,8.70
2019-04-03T07:53:24.313Z,8.80
2019-04-03T07:55:54.970Z,8.80
2019-04-03T07:58:25.143Z,8.90
2019-04-03T08:00:53.303Z,9.00
2019-04-03T08:03:22.081Z,9.00
2019-04-03T08:05:51.056Z,9.10
2019-04-03T08:08:20.028Z,9.10
2019-04-03T08:10:49.337Z,9.30
2019-04-03T08:13:18.520Z,9.40
2019-04-03T08:15:47.245Z,9.50
2019-04-03T08:18:16.114Z,9.60
2019-04-03T08:20:45.132Z,9.60
2019-04-03T08:23:14.196Z,9.70
2019-04-03T08:25:46.850Z,9.70
2019-04-03T08:28:13.234Z,9.80
2019-04-03T08:30:42.202Z,9.90
2019-04-03T08:33:17.901Z,9.90
2019-04-03T08:35:41.411Z,10.00
2019-04-03T08:38:12.532Z,10.00
2019-04-03T08:40:40.653Z,10.20
2019-04-03T08:43:09.677Z,10.30
2019-04-03T08:45:39.262Z,10.30
2019-04-03T08:48:08.549Z,10.40
2019-04-03T08:50:37.656Z,10.50
2019-04-03T08:53:08.353Z,10.60
2019-04-03T08:55:36.781Z,10.50
2019-04-03T08:58:05.633Z,10.60
2019-04-03T09:00:34.421Z,10.80
2019-04-03T09:03:04.112Z,10.90
2019-04-03T09:05:33.258Z,11.20
2019-04-03T09:08:02.000Z,12.00
2019-04-03T09:10:32.665Z,13.20
2019-04-03T09:13:01.282Z,14.20
2019-04-03T09:15:30.224Z,15.00
2019-04-03T09:17:59.453Z,15.40
2019-04-03T09:20:28.471Z,15.80
2019-04-03T09:22:57.134Z,16.30
2019-04-03T09:25:25.948Z,16.60
2019-04-03T09:27:55.039Z,16.60
2019-04-03T09:30:24.094Z,16.80
2019-04-03T09:32:54.410Z,17.30
2019-04-03T09:35:23.328Z,18.20
2019-04-03T09:37:52.243Z,19.10
2019-04-03T09:40:21.445Z,19.80
2019-04-03T09:42:51.518Z,20.20
2019-04-03T09:45:20.833Z,21.00
2019-04-03T09:47:50.066Z,20.70
2019-04-03T09:50:22.015Z,20.50
2019-04-03T09:52:50.794Z,20.40
2019-04-03T09:55:19.778Z,20.60
2019-04-03T09:57:48.362Z,21.00
2019-04-03T10:00:18.965Z,21.70
2019-04-03T10:02:48.873Z,21.30
2019-04-03T10:05:18.318Z,20.90
2019-04-03T10:07:47.156Z,20.90
2019-04-03T10:10:17.080Z,21.10
2019-04-03T10:12:48.043Z,22.20
2019-04-03T10:15:18.349Z,22.90
2019-04-03T10:17:47.816Z,23.00
2019-04-03T10:20:18.236Z,23.20
2019-04-03T10:22:47.400Z,23.40
2019-04-03T10:25:17.388Z,23.20
2019-04-03T10:27:46.202Z,23.00
2019-04-03T10:30:15.755Z,22.90
2019-04-03T10:32:44.619Z,22.80
2019-04-03T10:35:14.261Z,22.50
2019-04-03T10:37:45.478Z,22.80
2019-04-03T10:40:14.190Z,23.20
2019-04-03T10:42:42.959Z,22.90
2019-04-03T10:45:12.542Z,23.20
2019-04-03T10:47:43.600Z,23.70
2019-04-03T10:50:12.820Z,23.70
2019-04-03T10:52:44.077Z,24.00
2019-04-03T10:55:12.469Z,24.10
2019-04-03T10:57:41.321Z,24.20
2019-04-03T11:00:12.591Z,23.70
2019-04-03T11:02:41.385Z,23.60
2019-04-03T11:05:11.931Z,23.80
2019-04-03T11:07:41.156Z,24.10
2019-04-03T11:10:13.015Z,24.30
2019-04-03T11:12:41.882Z,24.30
2019-04-03T11:15:12.555Z,24.30
2019-04-03T11:17:42.029Z,24.10
2019-04-03T11:20:11.944Z,24.00
2019-04-03T11:22:43.549Z,24.20
2019-04-03T11:25:15.250Z,24.10
2019-04-03T11:27:45.003Z,24.20
2019-04-03T11:30:18.196Z,24.20
2019-04-03T11:32:45.955Z,23.80
2019-04-03T11:35:15.217Z,23.90
2019-04-03T11:37:43.916Z,23.80
2019-04-03T11:40:17.738Z,23.90
2019-04-03T11:42:44.610Z,24.40
2019-04-03T11:45:14.058Z,25.10
2019-04-03T11:47:43.223Z,25.10
2019-04-03T11:50:16.754Z,25.60
2019-04-03T11:52:45.610Z,25.70
2019-04-03T11:55:14.684Z,26.00
2019-04-03T11:57:43.317Z,26.40
2019-04-03T12:00:15.579Z,26.20
2019-04-03T12:02:44.801Z,26.10
2019-04-03T12:05:20.163Z,25.70
2019-04-03T12:07:47.586Z,25.50
2019-04-03T12:10:17.078Z,25.60
2019-04-03T12:12:45.985Z,25.50
2019-04-03T12:15:16.433Z,25.60
2019-04-03T12:17:45.595Z,26.00
2019-04-03T12:20:16.523Z,26.00
2019-04-03T12:22:45.573Z,26.10
2019-04-03T12:25:15.288Z,26.20
2019-04-03T12:27:46.040Z,25.60
2019-04-03T12:30:16.227Z,25.70
2019-04-03T12:32:48.712Z,26.00
2019-04-03T12:35:16.503Z,26.50
2019-04-03T12:37:49.311Z,26.80
2019-04-03T12:40:15.941Z,26.50
2019-04-03T12:42:44.522Z,27.00
2019-04-03T12:45:13.474Z,27.60
2019-04-03T12:47:44.151Z,28.00
2019-04-03T12:50:14.483Z,28.20
2019-04-03T12:52:44.883Z,28.20
2019-04-03T12:55:15.160Z,28.10
2019-04-03T12:57:44.095Z,28.40
2019-04-03T13:00:15.172Z,28.00
2019-04-03T13:02:43.986Z,27.30
2019-04-03T13:05:15.289Z,26.80
2019-04-03T13:07:45.735Z,26.70
2019-04-03T13:10:15.495Z,26.70
2019-04-03T13:12:44.536Z,26.60
2019-04-03T13:15:13.979Z,26.60
2019-04-03T13:17:44.238Z,26.70
2019-04-03T13:20:14.472Z,27.10
2019-04-03T13:22:43.745Z,27.60
2019-04-03T13:25:15.185Z,28.00
2019-04-03T13:27:44.049Z,28.20
2019-04-03T13:30:14.477Z,27.90
2019-04-03T13:32:43.148Z,27.50
2019-04-03T13:35:14.991Z,27.60
2019-04-03T13:37:42.525Z,27.50
2019-04-03T13:40:11.855Z,27.30
2019-04-03T13:42:40.562Z,27.40
2019-04-03T13:45:10.455Z,27.40
2019-04-03T13:47:41.113Z,27.50
2019-04-03T13:50:11.594Z,27.10
2019-04-03T13:52:43.511Z,26.70
2019-04-03T13:55:11.339Z,26.60
2019-04-03T13:57:39.999Z,27.30
2019-04-03T14:00:19.647Z,27.10
2019-04-03T14:02:41.285Z,26.80
2019-04-03T14:05:10.154Z,26.60
2019-04-03T14:07:41.602Z,26.00
2019-04-03T14:10:09.915Z,26.30
2019-04-03T14:12:43.217Z,26.60
2019-04-03T14:15:09.781Z,27.00
2019-04-03T14:17:38.631Z,27.10
2019-04-03T14:20:12.027Z,26.90
2019-04-03T14:22:40.715Z,26.60
2019-04-03T14:25:19.851Z,26.70
2019-04-03T14:27:39.977Z,27.10
2019-04-03T14:30:11.585Z,27.50
2019-04-03T14:32:39.370Z,28.00
2019-04-03T14:35:33.690Z,27.50
2019-04-03T14:37:38.944Z,27.00
2019-04-03T14:40:11.156Z,27.00
2019-04-03T14:42:38.864Z,26.50
2019-04-03T14:45:08.215Z,26.30
2019-04-03T14:47:36.863Z,26.20
2019-04-03T14:50:07.169Z,26.10
2019-04-03T14:52:36.343Z,26.00
2019-04-03T14:55:18.562Z,26.30
2019-04-03T14:57:38.180Z,25.80
2019-04-03T15:00:23.503Z,25.60
2019-04-03T15:02:41.049Z,25.30
2019-04-03T15:05:10.875Z,25.10
2019-04-03T15:07:40.402Z,24.90
2019-04-03T15:10:09.923Z,25.10
2019-04-03T15:12:39.840Z,25.50
2019-04-03T15:15:09.792Z,25.50
2019-04-03T15:17:39.125Z,25.50
2019-04-03T15:20:12.367Z,25.30
2019-04-03T15:22:41.498Z,25.10
2019-04-03T15:25:10.872Z,25.10
2019-04-03T15:27:39.522Z,24.80
2019-04-03T15:30:10.828Z,24.00
2019-04-03T15:32:40.155Z,23.40
2019-04-03T15:35:09.523Z,22.60
2019-04-03T15:37:41.536Z,22.00
2019-04-03T15:40:09.294Z,21.60
2019-04-03T15:42:40.618Z,21.20
2019-04-03T15:45:10.687Z,20.60
2019-04-03T15:47:45.024Z,20.40
2019-04-03T15:50:11.237Z,19.80
2019-04-03T15:52:39.938Z,19.30
2019-04-03T15:55:10.622Z,19.10
2019-04-03T15:57:40.701Z,18.80
2019-04-03T16:00:12.538Z,18.60
2019-04-03T16:02:44.525Z,18.00
2019-04-03T16:05:13.827Z,17.60
2019-04-03T16:07:42.696Z,17.40
2019-04-03T16:10:12.123Z,17.20
2019-04-03T16:12:42.884Z,17.10
2019-04-03T16:15:11.679Z,17.00
2019-04-03T16:17:40.611Z,16.80
2019-04-03T16:20:10.909Z,16.50
2019-04-03T16:22:40.228Z,16.30
2019-04-03T16:25:09.832Z,16.10
2019-04-03T16:27:38.669Z,15.90
2019-04-03T16:30:09.699Z,15.80
2019-04-03T16:32:39.028Z,15.70
2019-04-03T16:35:08.179Z,15.60
2019-04-03T16:37:37.315Z,15.50
2019-04-03T16:40:09.110Z,15.30
2019-04-03T16:42:39.740Z,15.10
2019-04-03T16:45:10.585Z,14.90
2019-04-03T16:47:40.156Z,14.70
2019-04-03T16:50:10.147Z,14.60
2019-04-03T16:52:38.984Z,14.40
2019-04-03T16:55:09.446Z,14.30
2019-04-03T16:57:38.372Z,14.20
2019-04-03T17:00:11.204Z,14.10
2019-04-03T17:02:41.482Z,13.90
2019-04-03T17:05:11.914Z,13.80
2019-04-03T17:07:41.777Z,13.70
2019-04-03T17:10:11.233Z,13.60
2019-04-03T17:12:39.835Z,13.40
2019-04-03T17:15:11.879Z,13.30
2019-04-03T17:17:41.169Z,13.20
2019-04-03T17:20:10.777Z,13.10
2019-04-03T17:22:40.875Z,13.00
2019-04-03T17:25:10.568Z,12.90
2019-04-03T17:27:39.531Z,12.80
2019-04-03T17:30:10.101Z,12.70
2019-04-03T17:32:40.094Z,12.60
2019-04-03T17:35:09.844Z,12.50
2019-04-03T17:37:40.804Z,12.50
2019-04-03T17:40:10.820Z,12.40
2019-04-03T17:42:40.220Z,12.30
2019-04-03T17:45:09.889Z,12.20
2019-04-03T17:47:38.558Z,12.10
2019-04-03T17:50:08.271Z,12.10
2019-04-03T17:52:37.139Z,12.00
2019-04-03T17:55:12.225Z,11.90
2019-04-03T17:57:40.852Z,11.90
2019-04-03T18:00:20.472Z,11.80
2019-04-03T18:02:49.058Z,11.70
2019-04-03T18:05:18.150Z,11.60
2019-04-03T18:07:46.807Z,11.60
2019-04-03T18:10:15.839Z,11.50
2019-04-03T18:12:45.888Z,11.40
2019-04-03T18:15:16.068Z,11.40
2019-04-03T18:17:44.782Z,11.30
2019-04-03T18:20:14.038Z,11.30
2019-04-03T18:22:42.702Z,11.20
2019-04-03T18:25:11.622Z,11.10
2019-04-03T18:27:40.240Z,11.10
2019-04-03T18:30:12.406Z,11.00
2019-04-03T18:32:41.692Z,11.00
2019-04-03T18:35:11.922Z,10.90
2019-04-03T18:37:41.336Z,10.80
2019-04-03T18:40:14.188Z,10.80
2019-04-03T18:42:41.800Z,10.70
2019-04-03T18:45:24.039Z,10.70
2019-04-03T18:47:45.913Z,10.60
2019-04-03T18:50:14.501Z,10.60
2019-04-03T18:52:43.170Z,10.50
2019-04-03T18:55:14.626Z,10.40
2019-04-03T18:57:43.596Z,10.40
2019-04-03T19:00:12.849Z,10.40
2019-04-03T19:02:41.831Z,10.30
2019-04-03T19:05:13.829Z,10.20
2019-04-03T19:07:41.154Z,10.20
2019-04-03T19:10:11.436Z,10.10
2019-04-03T19:12:43.173Z,10.10
2019-04-03T19:15:11.410Z,10.10
2019-04-03T19:17:40.160Z,10.00
2019-04-03T19:20:11.337Z,10.00
2019-04-03T19:22:39.570Z,9.90
2019-04-03T19:25:08.887Z,9.90
2019-04-03T19:27:37.635Z,9.90
2019-04-03T19:30:08.059Z,9.80
2019-04-03T19:32:36.920Z,9.80
2019-04-03T19:35:09.358Z,9.70
2019-04-03T19:37:38.292Z,9.70
2019-04-03T19:40:09.568Z,9.60
2019-04-03T19:42:38.601Z,9.60
2019-04-03T19:45:08.544Z,9.50
2019-04-03T19:47:37.147Z,9.50
2019-04-03T19:50:09.090Z,9.40
2019-04-03T19:52:41.397Z,9.40
2019-04-03T19:55:09.542Z,9.30
2019-04-03T19:57:38.177Z,9.30
2019-04-03T20:00:08.057Z,9.20
2019-04-03T20:02:38.203Z,9.20
2019-04-03T20:05:07.496Z,9.20
2019-04-03T20:07:36.279Z,9.10
2019-04-03T20:10:12.479Z,9.10
2019-04-03T20:12:41.176Z,9.00
2019-04-03T20:15:11.806Z,9.00
2019-04-03T20:17:40.632Z,8.90
2019-04-03T20:20:10.702Z,8.90
2019-04-03T20:22:42.250Z,8.80
2019-04-03T20:25:10.182Z,8.80
2019-04-03T20:27:38.828Z,8.70
2019-04-03T20:30:08.789Z,8.70
2019-04-03T20:32:39.953Z,8.70
2019-04-03T20:35:08.613Z,8.60
2019-04-03T20:37:37.209Z,8.60
2019-04-03T20:40:06.974Z,8.60
2019-04-03T20:42:35.586Z,8.60
2019-04-03T20:45:08.748Z,8.50
2019-04-03T20:47:37.429Z,8.50
2019-04-03T20:50:07.985Z,8.50
2019-04-03T20:52:36.638Z,8.40
2019-04-03T20:55:07.645Z,8.40
2019-04-03T20:57:36.379Z,8.40
2019-04-03T21:00:11.293Z,8.40
2019-04-03T21:02:41.941Z,8.30
2019-04-03T21:05:10.914Z,8.30
2019-04-03T21:07:39.611Z,8.20
2019-04-03T21:10:08.938Z,8.20
2019-04-03T21:12:37.760Z,8.10
2019-04-03T21:15:08.890Z,8.10
2019-04-03T21:17:37.555Z,8.10
2019-04-03T21:20:07.395Z,8.00
2019-04-03T21:22:35.956Z,8.00
2019-04-03T21:25:06.322Z,8.00
2019-04-03T21:27:34.948Z,8.00
2019-04-03T21:30:05.538Z,7.90
2019-04-03T21:32:34.114Z,7.90
2019-04-03T21:35:03.978Z,7.80
2019-04-03T21:37:33.215Z,7.80
2019-04-03T21:40:04.976Z,7.80
2019-04-03T21:42:33.366Z,7.80
2019-04-03T21:45:02.782Z,7.70
2019-04-03T21:47:32.331Z,7.70
2019-04-03T21:50:03.439Z,7.70
2019-04-03T21:52:31.294Z,7.60
2019-04-03T21:55:00.145Z,7.60
2019-04-03T21:57:28.898Z,7.50
2019-04-03T21:59:57.485Z,7.50
2019-04-03T22:02:26.120Z,7.50
2019-04-03T22:04:54.821Z,7.40
2019-04-03T22:07:23.635Z,7.40
2019-04-03T22:09:52.246Z,7.40
2019-04-03T22:12:20.819Z,7.40
2019-04-03T22:14:49.403Z,7.30
2019-04-03T22:17:17.986Z,7.30
2019-04-03T22:19:46.577Z,7.20
2019-04-03T22:22:15.167Z,7.20
2019-04-03T22:24:43.758Z,7.10
2019-04-03T22:27:12.341Z,7.10
2019-04-03T22:29:40.943Z,7.10
2019-04-03T22:32:10.410Z,7.00
2019-04-03T22:34:39.051Z,7.00
2019-04-03T22:37:07.625Z,6.90
2019-04-03T22:39:37.030Z,6.90
2019-04-03T22:42:06.543Z,6.80
2019-04-03T22:44:35.254Z,6.80
2019-04-03T22:47:03.938Z,6.80
2019-04-03T22:49:33.898Z,6.70
2019-04-03T22:52:02.785Z,6.70
2019-04-03T22:54:31.381Z,6.60
2019-04-03T22:56:59.949Z,6.60
2019-04-03T22:59:28.928Z,6.50
2019-04-03T23:02:00.743Z,6.50
2019-04-03T23:04:27.723Z,6.50
2019-04-03T23:06:56.318Z,6.50
2019-04-03T23:09:25.487Z,6.40
2019-04-03T23:11:54.317Z,6.40
2019-04-03T23:14:22.982Z,6.40
2019-04-03T23:16:51.874Z,6.30
2019-04-03T23:19:20.431Z,6.30
2019-04-03T23:21:49.202Z,6.30
2019-04-03T23:24:17.878Z,6.30
2019-04-03T23:26:46.470Z,6.30
2019-04-03T23:29:15.065Z,6.20
2019-04-03T23:31:44.890Z,6.20
2019-04-03T23:34:14.147Z,6.20
2019-04-03T23:36:42.805Z,6.20
2019-04-03T23:39:11.373Z,6.10
2019-04-03T23:41:40.003Z,6.10
2019-04-03T23:44:10.585Z,6.00
2019-04-03T23:46:39.320Z,6.00
2019-04-03T23:49:08.131Z,6.00
2019-04-03T23:51:36.700Z,6.00
2019-04-03T23:54:05.745Z,5.90
2019-04-03T23:56:34.417Z,5.90
2019-04-03T23:59:03.041Z,5.90
